createdAt,value
2019-05-01T00:04:22.785Z,22.83
2019-05-01T00:09:30.068Z,26.93
2019-05-01T00:14:35.247Z,27.33
2019-05-01T00:19:40.768Z,33.17
2019-05-01T00:24:45.952Z,33.13
2019-05-01T00:29:51.238Z,31.37
2019-05-01T00:34:57.498Z,33.60
2019-05-01T00:40:02.847Z,31.63
2019-05-01T00:45:08.024Z,27.43
2019-05-01T00:50:14.269Z,26.93
2019-05-01T00:55:37.073Z,27.70
2019-05-01T01:01:01.237Z,28.70
2019-05-01T01:06:08.269Z,26.17
2019-05-01T01:11:13.635Z,29.10
2019-05-01T01:16:18.815Z,31.60
2019-05-01T01:21:24.377Z,34.17
2019-05-01T01:26:29.683Z,30.97
2019-05-01T01:31:34.832Z,31.23
2019-05-01T01:36:40.017Z,33.90
2019-05-01T01:41:45.980Z,32.40
2019-05-01T01:46:52.024Z,32.80
2019-05-01T01:51:57.315Z,38.97
2019-05-01T01:57:03.390Z,29.50
2019-05-01T02:02:31.753Z,31.00
2019-05-01T02:07:36.959Z,30.27
2019-05-01T02:12:43.034Z,29.87
2019-05-01T02:17:48.208Z,34.13
2019-05-01T02:22:53.740Z,34.27
2019-05-01T02:28:33.187Z,29.77
2019-05-01T02:33:40.128Z,31.93
2019-05-01T02:38:47.900Z,34.67
2019-05-01T02:43:56.256Z,37.07
2019-05-01T02:49:08.242Z,37.63
2019-05-01T02:54:16.232Z,31.20
2019-05-01T02:59:23.451Z,31.63
2019-05-01T03:04:28.915Z,32.53
2019-05-01T03:09:35.138Z,33.97
2019-05-01T03:14:43.990Z,34.50
2019-05-01T03:19:59.352Z,34.37
2019-05-01T03:25:05.033Z,33.37
2019-05-01T03:30:10.307Z,34.50
2019-05-01T03:35:15.589Z,35.37
2019-05-01T03:40:21.491Z,34.17
2019-05-01T03:45:26.754Z,36.83
2019-05-01T03:50:31.955Z,33.10
2019-05-01T03:55:46.513Z,34.50
2019-05-01T04:01:29.310Z,36.23
2019-05-01T04:06:35.153Z,31.60
2019-05-01T04:11:40.434Z,35.70
2019-05-01T04:16:49.361Z,35.13
2019-05-01T04:22:04.658Z,33.70
2019-05-01T04:27:12.883Z,34.03
2019-05-01T04:32:30.226Z,31.73
2019-05-01T04:37:35.913Z,31.43
2019-05-01T04:42:41.282Z,34.37
2019-05-01T04:47:46.930Z,34.37
2019-05-01T04:52:53.177Z,33.30
2019-05-01T04:57:58.765Z,33.10
2019-05-01T05:03:08.081Z,35.07
2019-05-01T05:08:13.382Z,34.43
2019-05-01T05:13:27.989Z,32.93
2019-05-01T05:18:34.343Z,34.17
2019-05-01T05:23:39.686Z,34.17
2019-05-01T05:28:45.358Z,36.73
2019-05-01T05:33:53.177Z,34.27
2019-05-01T05:39:05.483Z,33.23
2019-05-01T05:44:10.959Z,35.97
2019-05-01T05:49:16.225Z,36.83
2019-05-01T05:54:44.713Z,37.87
2019-05-01T05:59:55.986Z,36.00
2019-05-01T06:05:17.354Z,33.15
2019-05-01T06:10:31.481Z,33.70
2019-05-01T06:16:01.631Z,34.17
2019-05-01T06:21:35.945Z,36.83
2019-05-01T06:26:41.847Z,34.67
2019-05-01T06:31:47.050Z,32.30
2019-05-01T06:36:52.348Z,31.97
2019-05-01T06:41:58.622Z,34.57
2019-05-01T06:47:18.782Z,34.48
2019-05-01T06:52:29.438Z,35.60
2019-05-01T06:57:32.988Z,33.53
2019-05-01T07:02:38.252Z,31.00
2019-05-01T07:07:47.995Z,33.20
2019-05-01T07:12:52.938Z,32.03
2019-05-01T07:17:59.396Z,31.95
2019-05-01T07:23:06.316Z,31.47
2019-05-01T07:28:11.494Z,30.27
2019-05-01T07:33:17.889Z,29.87
2019-05-01T07:38:24.721Z,29.23
2019-05-01T07:43:54.964Z,26.40
2019-05-01T07:48:59.502Z,26.15
2019-05-01T07:54:08.760Z,26.27
2019-05-01T07:59:12.221Z,24.63
2019-05-01T08:04:19.728Z,23.57
2019-05-01T08:09:25.041Z,23.92
2019-05-01T08:14:30.328Z,23.18
2019-05-01T08:19:44.747Z,22.65
2019-05-01T08:24:53.930Z,23.67
2019-05-01T08:30:17.422Z,22.70
2019-05-01T08:35:24.540Z,21.93
2019-05-01T08:40:30.109Z,22.20
2019-05-01T08:45:57.424Z,22.90
2019-05-01T08:51:03.869Z,21.80
2019-05-01T08:56:09.965Z,21.15
2019-05-01T09:01:16.414Z,22.32
2019-05-01T09:06:34.313Z,20.25
2019-05-01T09:11:31.749Z,19.40
2019-05-01T09:16:37.727Z,19.25
2019-05-01T09:21:43.811Z,18.12
2019-05-01T09:27:03.656Z,17.82
2019-05-01T09:32:10.144Z,16.50
2019-05-01T09:37:17.243Z,16.67
2019-05-01T09:42:23.705Z,16.62
2019-05-01T09:47:31.119Z,16.00
2019-05-01T09:52:50.805Z,15.13
2019-05-01T09:57:56.443Z,14.68
2019-05-01T10:03:01.712Z,12.25
2019-05-01T10:08:06.988Z,12.95
2019-05-01T10:13:12.877Z,11.90
2019-05-01T10:18:18.239Z,12.15
2019-05-01T10:23:23.692Z,10.40
2019-05-01T10:28:45.213Z,10.45
2019-05-01T10:33:49.506Z,9.70
2019-05-01T10:38:54.782Z,9.60
2019-05-01T10:43:59.967Z,9.98
2019-05-01T10:49:05.326Z,9.50
2019-05-01T10:54:11.424Z,9.10
2019-05-01T10:59:16.681Z,8.95
2019-05-01T11:04:21.946Z,10.00
2019-05-01T11:09:27.271Z,9.25
2019-05-01T11:14:32.533Z,10.45
2019-05-01T11:19:38.168Z,10.18
2019-05-01T11:24:43.428Z,10.25
2019-05-01T11:29:48.695Z,10.18
2019-05-01T11:35:03.581Z,10.35
2019-05-01T11:40:13.503Z,10.00
2019-05-01T11:45:20.023Z,10.90
2019-05-01T11:50:25.309Z,10.78
2019-05-01T11:55:33.215Z,10.20
2019-05-01T12:00:38.769Z,11.40
2019-05-01T12:05:45.257Z,10.40
2019-05-01T12:10:50.647Z,10.48
2019-05-01T12:16:03.083Z,11.50
2019-05-01T12:21:08.764Z,11.70
2019-05-01T12:26:14.312Z,12.75
2019-05-01T12:31:19.590Z,13.00
2019-05-01T12:36:35.660Z,13.70
2019-05-01T12:41:40.177Z,13.10
2019-05-01T12:46:51.302Z,14.35
2019-05-01T12:52:09.888Z,13.53
2019-05-01T12:57:06.726Z,14.20
2019-05-01T13:02:12.012Z,14.05
2019-05-01T13:07:17.497Z,14.07
2019-05-01T13:12:23.128Z,13.90
2019-05-01T13:17:28.402Z,13.90
2019-05-01T13:22:33.663Z,13.30
2019-05-01T13:27:46.936Z,14.38
2019-05-01T13:32:53.620Z,14.55
2019-05-01T13:37:58.876Z,11.88
2019-05-01T13:43:04.478Z,13.22
2019-05-01T13:48:10.179Z,12.70
2019-05-01T13:53:16.356Z,12.45
2019-05-01T13:58:22.035Z,12.55
2019-05-01T14:03:28.370Z,12.33
2019-05-01T14:08:33.631Z,11.30
2019-05-01T14:13:39.017Z,11.05
2019-05-01T14:18:44.328Z,10.85
2019-05-01T14:24:12.396Z,10.70
2019-05-01T14:29:17.994Z,10.70
2019-05-01T14:34:23.283Z,10.75
2019-05-01T14:39:33.560Z,10.80
2019-05-01T14:44:39.333Z,10.65
2019-05-01T14:49:44.966Z,10.15
2019-05-01T14:54:50.229Z,10.70
2019-05-01T14:59:55.737Z,9.80
2019-05-01T15:05:01.000Z,9.48
2019-05-01T15:10:08.557Z,8.95
2019-05-01T15:15:45.344Z,9.55
2019-05-01T15:20:50.605Z,9.93
2019-05-01T15:25:56.269Z,10.32
2019-05-01T15:31:02.655Z,10.10
2019-05-01T15:36:08.028Z,10.13
2019-05-01T15:41:31.563Z,9.48
2019-05-01T15:46:38.483Z,10.50
2019-05-01T15:51:43.969Z,11.60
2019-05-01T15:56:49.252Z,12.58
2019-05-01T16:01:54.541Z,13.30
2019-05-01T16:07:00.107Z,13.25
2019-05-01T16:12:15.799Z,13.88
2019-05-01T16:17:21.344Z,14.10
2019-05-01T16:22:26.670Z,13.68
2019-05-01T16:27:33.108Z,13.00
2019-05-01T16:32:38.401Z,13.72
2019-05-01T16:37:44.479Z,13.93
2019-05-01T16:42:49.991Z,13.32
2019-05-01T16:47:55.100Z,13.80
2019-05-01T16:53:00.719Z,13.98
2019-05-01T16:58:08.737Z,13.72
2019-05-01T17:03:24.615Z,13.08
2019-05-01T17:14:13.747Z,13.95
2019-05-01T17:19:19.003Z,13.53
2019-05-01T17:24:24.929Z,13.40
2019-05-01T17:29:30.207Z,13.25
2019-05-01T17:34:35.480Z,13.28
2019-05-01T17:39:41.079Z,13.13
2019-05-01T17:44:48.347Z,13.28
2019-05-01T17:49:53.692Z,12.98
2019-05-01T17:55:01.326Z,13.00
2019-05-01T18:00:22.893Z,13.00
2019-05-01T18:05:56.173Z,13.98
2019-05-01T18:11:01.561Z,13.03
2019-05-01T18:16:07.102Z,13.22
2019-05-01T18:21:13.427Z,12.33
2019-05-01T18:26:29.103Z,13.32
2019-05-01T18:31:38.426Z,12.75
2019-05-01T18:36:48.938Z,12.95
2019-05-01T18:41:57.469Z,12.68
2019-05-01T18:47:02.735Z,12.40
2019-05-01T18:52:09.225Z,13.22
2019-05-01T18:57:14.930Z,13.05
2019-05-01T19:02:25.064Z,13.22
2019-05-01T19:07:28.347Z,13.30
2019-05-01T19:12:34.064Z,13.85
2019-05-01T19:17:40.454Z,13.03
2019-05-01T19:22:45.794Z,13.45
2019-05-01T19:27:51.736Z,12.88
2019-05-01T19:32:57.050Z,13.43
2019-05-01T19:38:02.443Z,12.98
2019-05-01T19:43:08.091Z,14.63
2019-05-01T19:48:13.842Z,13.90
2019-05-01T19:53:19.094Z,13.85
2019-05-01T19:58:24.429Z,14.35
2019-05-01T20:03:30.526Z,13.65
2019-05-01T20:08:37.046Z,13.58
2019-05-01T20:13:42.401Z,14.25
2019-05-01T20:18:47.658Z,14.60
2019-05-01T20:23:53.288Z,14.30
2019-05-01T20:29:00.427Z,14.30
2019-05-01T20:34:05.838Z,14.90
2019-05-01T20:39:11.092Z,15.43
2019-05-01T20:44:22.958Z,14.68
2019-05-01T20:49:23.891Z,13.85
2019-05-01T20:54:29.566Z,14.63
2019-05-01T20:59:39.150Z,13.68
2019-05-01T21:05:01.376Z,15.40
2019-05-01T21:10:08.519Z,17.48
2019-05-01T21:15:13.922Z,16.50
2019-05-01T21:20:19.195Z,16.15
2019-05-01T21:25:24.472Z,15.13
2019-05-01T21:30:29.875Z,15.58
2019-05-01T21:35:35.281Z,16.90
2019-05-01T21:40:41.233Z,17.57
2019-05-01T21:45:47.503Z,16.87
2019-05-01T21:50:53.725Z,16.97
2019-05-01T21:56:02.167Z,17.27
2019-05-01T22:01:07.962Z,17.30
2019-05-01T22:06:15.266Z,16.65
2019-05-01T22:11:20.320Z,14.75
2019-05-01T22:16:27.227Z,16.27
2019-05-01T22:21:57.967Z,16.80
2019-05-01T22:27:10.219Z,15.48
2019-05-01T22:32:34.152Z,17.25
2019-05-01T22:37:40.453Z,17.67
2019-05-01T22:42:45.706Z,16.77
2019-05-01T22:47:52.231Z,16.00
2019-05-01T22:52:57.855Z,17.25
2019-05-01T22:58:03.100Z,16.80
2019-05-01T23:03:11.282Z,18.05
2019-05-01T23:08:16.546Z,19.15
2019-05-01T23:13:22.667Z,17.98
2019-05-01T23:18:28.328Z,17.35
2019-05-01T23:23:35.555Z,18.32
2019-05-01T23:28:41.553Z,19.65
2019-05-01T23:33:50.565Z,17.35
2019-05-01T23:38:53.777Z,20.17
2019-05-01T23:44:03.456Z,17.73
2019-05-01T23:49:06.671Z,21.05
2019-05-01T23:54:11.851Z,21.37
2019-05-01T23:59:17.027Z,22.03
